Accueil
METAR-TAF:

METAR-TAF

Aéroports :

Passo Rolle, Italie

latitude: 46-18N, longitude: 011-47E, altitude: 2004 m

Observation

Le bulletin a été fait il y a 41 minutes, à 20:55 UTC
Vent 10 kt de sud/sud-est
Température 6°C
Humidité 93%
Pression 1006 hPa
Visibilité: 0200 m
brouillard

METAR: LIVR 262055Z 16010KT 0200 FG VV/// 06/05 Q1006 RMK MON INVIS VIS MIN 0200

Heure: 23:36 (21:36 UTC)


TAF: absent

Observations et prévisions météorologiques de plus de 4000 aéroports (messages METAR et TAF).

Les stations disponibles sont représentées par des disques jaunes et rouges sur la carte.

Passer la souris dessus pour voir le nom de la station.

Cliquer dessus pour voir les observations et prévisions météorologiques.

Pour changer de carte: cliquez sur les boutons verts avec une croix noire pour zoomer, sur le bouton vert avec un tiret pour effectuer un zoom arrière, ou sur les flèches vertes pour les cartes adjacentes.


METAR-TAF: